createdAt,value
2019-04-23T07:00:55.328Z,16.20
2019-04-23T07:06:34.559Z,19.10
2019-04-23T07:12:08.387Z,19.30
2019-04-23T07:17:39.296Z,19.60
2019-04-23T07:23:28.206Z,19.90
2019-04-23T07:29:07.069Z,19.90
2019-04-23T07:34:37.280Z,19.60
2019-04-23T07:45:51.540Z,18.80
2019-04-23T07:51:26.168Z,18.90
2019-04-23T07:57:01.603Z,19.10
2019-04-23T08:02:33.345Z,19.60
2019-04-23T08:07:49.073Z,20.20
2019-04-23T08:13:15.384Z,20.40
2019-04-23T08:18:36.022Z,20.80
2019-04-23T08:23:54.947Z,21.00
2019-04-23T08:29:13.702Z,21.10
2019-04-23T08:34:51.501Z,21.20
2019-04-23T08:40:06.113Z,21.40
2019-04-23T08:45:14.927Z,21.50
2019-04-23T08:50:31.965Z,21.30
2019-04-23T08:55:48.821Z,21.40
2019-04-23T09:01:08.624Z,21.20
2019-04-23T09:06:27.213Z,20.80
2019-04-23T09:17:26.390Z,20.30
2019-04-23T09:22:41.809Z,20.40
2019-04-23T09:27:52.437Z,20.30
2019-04-23T09:33:13.475Z,20.20
2019-04-23T09:38:31.314Z,20.10
2019-04-23T09:43:53.403Z,20.20
2019-04-23T09:49:19.959Z,20.30
2019-04-23T09:54:39.608Z,20.50
2019-04-23T09:59:56.867Z,20.70
2019-04-23T10:04:55.396Z,20.90
2019-04-23T10:09:57.241Z,21.00
2019-04-23T10:15:13.570Z,21.00
2019-04-23T10:20:13.765Z,21.10
2019-04-23T10:25:12.874Z,21.40
2019-04-23T10:30:12.239Z,21.70
2019-04-23T10:35:25.487Z,22.00
2019-04-23T10:40:38.091Z,22.30
2019-04-23T10:46:07.517Z,22.90
2019-04-23T10:51:33.606Z,23.30
2019-04-23T10:56:44.660Z,23.80
2019-04-23T11:02:08.041Z,24.40
2019-04-23T11:07:25.823Z,24.60
2019-04-23T11:12:36.845Z,24.70
2019-04-23T11:17:45.452Z,25.10
2019-04-23T11:28:13.123Z,25.00
2019-04-23T11:33:18.268Z,24.90
2019-04-23T11:38:48.147Z,24.90
2019-04-23T11:43:45.794Z,24.60
2019-04-23T11:49:17.525Z,24.50
2019-04-23T11:54:17.088Z,24.60
2019-04-23T12:04:45.130Z,25.30
2019-04-23T12:20:26.574Z,26.00
2019-04-23T12:30:50.015Z,26.00
2019-04-23T12:36:01.896Z,26.00
2019-04-23T12:41:20.557Z,25.90
2019-04-23T12:46:37.688Z,25.90
2019-04-23T12:51:46.495Z,25.70
2019-04-23T12:57:02.831Z,25.90
2019-04-23T13:02:13.668Z,25.90
2019-04-23T13:07:33.188Z,25.70
2019-04-23T13:12:41.138Z,25.10
2019-04-23T13:38:53.585Z,26.00
2019-04-23T13:44:07.965Z,26.10
2019-04-23T13:49:07.156Z,26.00
2019-04-23T13:54:45.782Z,26.10
2019-04-23T14:05:03.658Z,26.10
2019-04-23T14:10:09.820Z,26.30
2019-04-23T14:15:34.030Z,26.50
2019-04-23T14:20:31.434Z,26.70
2019-04-23T14:25:59.429Z,26.90
2019-04-23T14:36:13.497Z,26.60
2019-04-23T14:46:49.012Z,26.40
2019-04-23T15:02:25.401Z,25.90
2019-04-23T15:07:33.166Z,26.10
2019-04-23T15:18:03.714Z,25.40
2019-04-23T15:28:07.212Z,25.30
2019-04-23T15:33:43.116Z,25.30
2019-04-23T15:44:08.356Z,24.80
2019-04-23T15:54:33.628Z,24.50
2019-04-23T16:04:21.654Z,24.10
2019-04-23T16:09:53.899Z,24.00
2019-04-23T16:15:05.025Z,23.90
2019-04-23T16:20:29.458Z,23.70
2019-04-23T16:25:25.036Z,23.50
2019-04-23T16:30:44.422Z,23.40
2019-04-23T16:36:04.881Z,23.30
2019-04-23T16:41:15.156Z,23.20
2019-04-23T16:46:30.278Z,23.10
2019-04-23T16:51:45.253Z,23.00
2019-04-23T17:07:32.477Z,22.70
2019-04-23T17:13:04.267Z,22.70
2019-04-23T17:18:10.904Z,22.50
2019-04-23T17:28:42.354Z,22.20
2019-04-23T17:39:11.834Z,21.80
2019-04-23T17:45:05.554Z,21.70
2019-04-23T17:55:29.382Z,21.50
2019-04-23T18:01:02.317Z,21.40
2019-04-23T18:06:20.712Z,21.20
2019-04-23T18:11:22.865Z,21.10
2019-04-23T18:21:58.350Z,21.00
2019-04-23T18:27:11.686Z,20.80
2019-04-23T18:32:32.548Z,20.70
2019-04-23T18:37:54.942Z,20.60
2019-04-23T18:43:32.535Z,20.50
2019-04-23T18:48:43.717Z,20.40
2019-04-23T18:53:52.411Z,20.30
2019-04-23T18:59:28.478Z,20.20
2019-04-23T19:15:28.385Z,19.80
2019-04-23T19:26:01.539Z,19.50
2019-04-23T19:31:41.810Z,19.40
2019-04-23T19:37:00.906Z,19.30
2019-04-23T19:42:17.151Z,19.20
2019-04-23T19:47:54.081Z,19.10
2019-04-23T19:53:23.735Z,19.00
2019-04-23T19:58:56.127Z,18.90
2019-04-23T20:04:20.263Z,18.80
2019-04-23T20:15:11.941Z,18.70
2019-04-23T20:20:49.086Z,18.60
2019-04-23T20:33:11.792Z,18.30
2019-04-23T20:37:04.272Z,18.20
2019-04-23T20:42:34.494Z,18.20
2019-04-23T20:48:11.212Z,18.10
2019-04-23T20:53:52.702Z,18.10
2019-04-23T20:59:19.900Z,18.10
2019-04-23T21:05:02.822Z,18.10
2019-04-23T21:10:33.074Z,18.00
2019-04-23T21:16:04.708Z,17.90
2019-04-23T21:21:53.008Z,17.90
2019-04-23T21:27:25.075Z,17.80
2019-04-23T21:32:55.532Z,17.80
2019-04-23T21:38:45.878Z,17.70
2019-04-23T21:49:53.488Z,17.70
2019-04-23T21:55:28.021Z,17.60
2019-04-23T22:01:18.001Z,17.50
2019-04-23T22:06:42.451Z,17.50
2019-04-23T22:12:13.375Z,17.40
2019-04-23T22:17:57.906Z,17.30
2019-04-23T22:23:50.251Z,17.30
2019-04-23T22:29:22.736Z,17.40
2019-04-23T22:40:48.901Z,17.60
2019-04-23T22:46:32.644Z,17.60
2019-04-23T22:52:08.536Z,17.70
2019-04-23T22:57:58.281Z,17.70
2019-04-23T23:03:25.281Z,17.70
2019-04-23T23:09:18.510Z,17.60
2019-04-23T23:14:53.798Z,17.50
2019-04-23T23:20:34.640Z,17.50
2019-04-23T23:26:07.698Z,17.40
2019-04-23T23:31:59.783Z,17.40
2019-04-23T23:37:49.737Z,17.40
2019-04-23T23:49:02.672Z,17.30
2019-04-23T23:54:52.357Z,17.40
